createdAt,value
2019-04-28T00:02:08.413Z,16.38
2019-04-28T00:04:39.088Z,16.46
2019-04-28T00:07:08.087Z,16.54
2019-04-28T00:09:37.756Z,16.44
2019-04-28T00:12:07.744Z,16.50
2019-04-28T00:14:37.599Z,16.48
2019-04-28T00:17:08.243Z,16.36
2019-04-28T00:19:40.733Z,16.23
2019-04-28T00:22:12.558Z,16.21
2019-04-28T00:24:53.138Z,16.22
2019-04-28T00:27:22.312Z,16.17
2019-04-28T00:29:52.085Z,16.15
2019-04-28T00:32:22.016Z,16.16
2019-04-28T00:34:51.890Z,16.19
2019-04-28T00:37:23.366Z,16.11
2019-04-28T00:39:53.267Z,16.12
2019-04-28T00:42:23.138Z,16.24
2019-04-28T00:44:52.883Z,16.21
2019-04-28T00:47:22.691Z,16.14
2019-04-28T00:49:52.512Z,16.07
2019-04-28T00:52:22.411Z,15.99
2019-04-28T00:54:52.900Z,15.98
2019-04-28T00:57:22.733Z,16.02
2019-04-28T00:59:57.982Z,16.08
2019-04-28T01:02:28.361Z,16.22
2019-04-28T01:04:58.175Z,16.03
2019-04-28T01:07:28.035Z,16.13
2019-04-28T01:09:57.901Z,16.01
2019-04-28T01:12:27.796Z,16.00
2019-04-28T01:14:59.671Z,15.89
2019-04-28T01:17:30.816Z,16.02
2019-04-28T01:20:17.431Z,16.03
2019-04-28T01:22:47.225Z,16.16
2019-04-28T01:25:17.119Z,16.14
2019-04-28T01:27:50.418Z,16.12
2019-04-28T01:30:23.149Z,16.09
2019-04-28T01:32:54.615Z,15.95
2019-04-28T01:35:24.462Z,15.78
2019-04-28T01:37:54.297Z,15.66
2019-04-28T01:40:24.256Z,15.61
2019-04-28T01:42:54.158Z,15.31
2019-04-28T01:45:24.001Z,15.08
2019-04-28T01:47:53.969Z,14.89
2019-04-28T01:50:23.713Z,14.69
2019-04-28T01:52:53.535Z,14.55
2019-04-28T01:55:23.347Z,14.38
2019-04-28T01:57:53.255Z,14.30
2019-04-28T02:00:25.572Z,14.27
2019-04-28T02:02:54.748Z,14.29
2019-04-28T02:05:24.591Z,14.32
2019-04-28T02:07:54.514Z,14.52
2019-04-28T02:10:24.366Z,14.75
2019-04-28T02:12:54.176Z,14.84
2019-04-28T02:15:24.029Z,14.97
2019-04-28T02:17:53.907Z,15.13
2019-04-28T02:20:24.214Z,15.18
2019-04-28T02:22:59.882Z,15.25
2019-04-28T02:25:29.915Z,15.24
2019-04-28T02:27:59.760Z,15.30
2019-04-28T02:30:44.056Z,15.44
2019-04-28T02:33:01.843Z,15.47
2019-04-28T02:35:34.105Z,15.45
2019-04-28T02:38:04.304Z,15.41
2019-04-28T02:40:34.072Z,15.42
2019-04-28T02:43:03.914Z,15.57
2019-04-28T02:45:36.414Z,15.59
2019-04-28T02:48:07.893Z,15.44
2019-04-28T02:50:42.407Z,15.72
2019-04-28T02:53:21.077Z,15.72
2019-04-28T02:55:51.466Z,15.73
2019-04-28T02:58:22.383Z,15.57
2019-04-28T03:01:06.750Z,15.43
2019-04-28T03:03:24.079Z,15.50
2019-04-28T03:05:53.895Z,15.66
2019-04-28T03:08:23.656Z,15.59
2019-04-28T03:10:53.466Z,15.72
2019-04-28T03:13:23.362Z,15.93
2019-04-28T03:15:53.181Z,16.00
2019-04-28T03:18:24.530Z,16.14
2019-04-28T03:20:54.279Z,16.10
2019-04-28T03:23:24.037Z,16.10
2019-04-28T03:25:58.150Z,16.09
2019-04-28T03:28:35.594Z,16.23
2019-04-28T03:31:36.720Z,16.26
2019-04-28T03:33:48.043Z,16.21
2019-04-28T03:36:15.027Z,16.22
2019-04-28T03:38:42.833Z,16.27
2019-04-28T03:41:12.675Z,16.31
2019-04-28T03:43:42.499Z,16.26
2019-04-28T03:46:16.589Z,16.54
2019-04-28T03:48:46.398Z,16.46
2019-04-28T03:51:16.199Z,16.47
2019-04-28T03:53:46.114Z,16.42
2019-04-28T03:56:15.959Z,16.31
2019-04-28T03:58:45.713Z,16.20
2019-04-28T04:01:15.610Z,16.07
2019-04-28T04:03:45.573Z,16.16
2019-04-28T04:06:15.451Z,16.29
2019-04-28T04:08:45.261Z,16.31
2019-04-28T04:11:16.639Z,16.31
2019-04-28T04:13:51.485Z,16.26
2019-04-28T04:16:40.543Z,16.38
2019-04-28T04:19:12.171Z,16.49
2019-04-28T04:21:42.109Z,16.46
2019-04-28T04:24:11.954Z,16.59
2019-04-28T04:26:41.849Z,16.53
2019-04-28T04:29:12.079Z,16.70
2019-04-28T04:31:41.925Z,16.80
2019-04-28T04:34:11.757Z,16.85
2019-04-28T04:36:41.976Z,16.97
2019-04-28T04:39:11.858Z,16.91
2019-04-28T04:41:43.706Z,16.94
2019-04-28T04:44:13.272Z,16.91
2019-04-28T04:46:44.010Z,17.14
2019-04-28T04:49:13.862Z,17.24
2019-04-28T04:51:44.099Z,17.44
2019-04-28T04:54:14.105Z,17.65
2019-04-28T04:56:44.054Z,18.02
2019-04-28T04:59:13.881Z,18.16
2019-04-28T05:01:45.396Z,18.29
2019-04-28T05:04:19.773Z,18.70
2019-04-28T05:06:50.668Z,18.88
2019-04-28T05:09:20.430Z,19.35
2019-04-28T05:11:50.265Z,19.19
2019-04-28T05:14:20.141Z,19.44
2019-04-28T05:16:49.991Z,19.34
2019-04-28T05:19:20.079Z,19.51
2019-04-28T05:21:50.024Z,19.35
2019-04-28T05:24:36.654Z,19.53
2019-04-28T05:27:06.619Z,19.29
2019-04-28T05:29:36.551Z,19.31
2019-04-28T05:32:06.380Z,19.39
2019-04-28T05:34:41.511Z,19.53
2019-04-28T05:37:07.975Z,19.48
2019-04-28T05:39:40.326Z,19.36
2019-04-28T05:42:11.304Z,19.23
2019-04-28T05:44:41.324Z,18.67
2019-04-28T05:47:11.240Z,18.66
2019-04-28T05:49:49.820Z,18.41
2019-04-28T05:52:34.043Z,17.96
2019-04-28T05:55:07.346Z,17.74
2019-04-28T05:57:39.779Z,17.66
2019-04-28T06:00:23.363Z,17.66
2019-04-28T06:02:56.872Z,17.50
2019-04-28T06:05:26.802Z,17.42
2019-04-28T06:08:02.491Z,17.28
2019-04-28T06:10:34.057Z,17.18
2019-04-28T06:13:03.960Z,17.20
2019-04-28T06:15:35.331Z,17.26
2019-04-28T06:18:05.160Z,17.18
2019-04-28T06:20:37.658Z,17.20
2019-04-28T06:23:09.895Z,17.22
2019-04-28T06:25:41.306Z,17.23
2019-04-28T06:28:11.110Z,17.12
2019-04-28T06:30:42.467Z,17.03
2019-04-28T06:33:12.506Z,17.16
2019-04-28T06:35:42.259Z,17.29
2019-04-28T06:38:12.381Z,17.28
2019-04-28T06:40:42.302Z,17.29
2019-04-28T06:43:12.143Z,17.21
2019-04-28T06:45:42.101Z,17.26
2019-04-28T06:48:11.918Z,17.04
2019-04-28T06:50:41.761Z,17.07
2019-04-28T06:53:11.574Z,16.99
2019-04-28T06:55:42.440Z,16.94
2019-04-28T06:58:12.397Z,16.84
2019-04-28T07:00:43.664Z,16.84
2019-04-28T07:03:22.939Z,16.73
2019-04-28T07:05:45.098Z,16.57
2019-04-28T07:08:15.044Z,16.35
2019-04-28T07:10:44.861Z,16.14
2019-04-28T07:13:14.627Z,16.19
2019-04-28T07:15:44.442Z,16.09
2019-04-28T07:18:14.354Z,15.98
2019-04-28T07:20:45.863Z,15.51
2019-04-28T07:23:15.782Z,15.35
2019-04-28T07:25:45.619Z,15.35
2019-04-28T07:28:15.531Z,15.58
2019-04-28T07:30:45.483Z,16.09
2019-04-28T07:33:17.023Z,16.49
2019-04-28T07:35:46.931Z,17.09
2019-04-28T07:38:16.704Z,17.61
2019-04-28T07:40:47.641Z,18.17
2019-04-28T07:43:17.397Z,18.69
2019-04-28T07:45:47.258Z,19.57
2019-04-28T07:48:17.145Z,20.44
2019-04-28T07:50:47.021Z,21.15
2019-04-28T07:53:24.522Z,21.93
2019-04-28T07:55:54.362Z,22.58
2019-04-28T07:58:25.191Z,22.20
2019-04-28T08:00:55.119Z,21.36
2019-04-28T08:03:24.948Z,21.56
2019-04-28T08:05:54.896Z,21.56
2019-04-28T08:08:24.727Z,21.79
2019-04-28T08:10:54.566Z,24.15
2019-04-28T08:13:24.422Z,25.98
2019-04-28T08:15:54.321Z,25.95
2019-04-28T08:18:24.194Z,25.96
2019-04-28T08:20:54.206Z,23.70
2019-04-28T08:23:24.423Z,23.65
2019-04-28T08:25:54.335Z,24.80
2019-04-28T08:28:24.190Z,25.68
2019-04-28T08:30:55.109Z,25.89
2019-04-28T08:33:35.499Z,25.46
2019-04-28T08:36:04.540Z,26.65
2019-04-28T08:38:34.332Z,27.46
2019-04-28T08:41:04.251Z,27.60
2019-04-28T08:43:34.334Z,28.74
2019-04-28T08:46:04.292Z,28.33
2019-04-28T08:48:34.193Z,26.00
2019-04-28T08:51:04.430Z,26.37
2019-04-28T08:53:34.286Z,26.27
2019-04-28T08:56:04.433Z,26.69
2019-04-28T08:58:34.285Z,27.75
2019-04-28T09:01:04.275Z,29.38
2019-04-28T09:03:34.237Z,30.73
2019-04-28T09:06:04.135Z,28.92
2019-04-28T09:08:34.039Z,28.12
2019-04-28T09:11:04.080Z,26.24
2019-04-28T09:13:33.906Z,27.11
2019-04-28T09:16:03.666Z,26.90
2019-04-28T09:18:33.424Z,29.94
2019-04-28T09:21:04.177Z,29.80
2019-04-28T09:23:34.248Z,28.88
2019-04-28T09:26:04.156Z,27.02
2019-04-28T09:28:34.054Z,28.34
2019-04-28T09:31:05.332Z,26.50
2019-04-28T09:33:34.394Z,27.33
2019-04-28T09:36:04.107Z,26.53
2019-04-28T09:38:34.031Z,25.97
2019-04-28T09:41:03.923Z,24.97
2019-04-28T09:43:53.540Z,26.43
2019-04-28T09:46:24.986Z,25.87
2019-04-28T09:48:54.843Z,26.17
2019-04-28T09:51:24.669Z,25.42
2019-04-28T09:53:54.506Z,25.01
2019-04-28T09:56:24.380Z,24.62
2019-04-28T09:58:54.130Z,23.94
2019-04-28T10:01:24.051Z,23.72
2019-04-28T10:03:53.897Z,23.58
2019-04-28T10:06:23.770Z,23.34
2019-04-28T10:08:53.550Z,23.69
2019-04-28T10:11:30.346Z,24.03
2019-04-28T10:13:57.016Z,23.47
2019-04-28T10:16:26.572Z,23.32
2019-04-28T10:18:56.493Z,23.23
2019-04-28T10:21:26.236Z,22.71
2019-04-28T10:23:56.247Z,23.10
2019-04-28T10:26:26.055Z,23.11
2019-04-28T10:28:55.982Z,23.40
2019-04-28T10:31:25.859Z,23.13
2019-04-28T10:33:57.359Z,23.35
2019-04-28T10:36:28.856Z,23.36
2019-04-28T10:39:01.332Z,23.61
2019-04-28T10:41:34.371Z,23.97
2019-04-28T10:44:04.267Z,24.00
2019-04-28T10:46:34.181Z,23.61
2019-04-28T10:49:04.141Z,23.68
2019-04-28T10:51:33.907Z,24.17
2019-04-28T10:54:03.802Z,24.20
2019-04-28T10:56:33.678Z,24.13
2019-04-28T10:59:03.808Z,23.76
2019-04-28T11:01:33.723Z,23.97
2019-04-28T11:04:14.071Z,24.35
2019-04-28T11:06:43.897Z,23.99
2019-04-28T11:09:33.330Z,24.66
2019-04-28T11:12:04.706Z,24.70
2019-04-28T11:14:34.635Z,27.73
2019-04-28T11:17:04.491Z,34.14
2019-04-28T11:19:34.331Z,31.42
2019-04-28T11:22:04.267Z,26.97
2019-04-28T11:24:35.314Z,25.06
2019-04-28T11:27:05.257Z,24.66
2019-04-28T11:29:35.145Z,24.56
2019-04-28T11:32:05.165Z,24.00
2019-04-28T11:34:42.621Z,24.50
2019-04-28T11:37:12.779Z,24.34
2019-04-28T11:39:44.184Z,25.27
2019-04-28T11:42:14.087Z,25.96
2019-04-28T11:44:43.992Z,26.54
2019-04-28T11:47:15.393Z,25.71
2019-04-28T11:49:45.310Z,25.85
2019-04-28T11:52:15.339Z,25.36
2019-04-28T11:54:45.246Z,25.32
2019-04-28T11:57:15.072Z,25.20
2019-04-28T11:59:44.902Z,27.60
2019-04-28T12:02:14.831Z,31.23
2019-04-28T12:04:44.797Z,31.76
2019-04-28T12:07:14.698Z,34.73
2019-04-28T12:09:49.218Z,32.76
2019-04-28T12:12:26.737Z,32.10
2019-04-28T12:15:07.340Z,30.97
2019-04-28T12:17:54.509Z,32.69
2019-04-28T12:20:25.899Z,35.63
2019-04-28T12:22:55.819Z,30.77
2019-04-28T12:25:25.713Z,32.16
2019-04-28T12:27:55.655Z,35.00
2019-04-28T12:30:25.503Z,35.00
2019-04-28T12:32:55.283Z,35.39
2019-04-28T12:35:25.040Z,33.66
2019-04-28T12:37:54.881Z,32.71
2019-04-28T12:40:24.707Z,31.98
2019-04-28T12:42:54.590Z,31.19
2019-04-28T12:45:34.544Z,31.68
2019-04-28T12:47:56.005Z,32.31
2019-04-28T12:50:27.464Z,31.97
2019-04-28T12:52:57.325Z,31.63
2019-04-28T12:55:27.148Z,30.50
2019-04-28T12:57:57.049Z,30.19
2019-04-28T13:00:34.397Z,30.91
2019-04-28T13:03:14.721Z,29.97
2019-04-28T13:06:01.159Z,29.54
2019-04-28T13:08:21.038Z,28.99
2019-04-28T13:10:51.173Z,28.18
2019-04-28T13:13:22.681Z,27.67
2019-04-28T13:15:52.516Z,27.08
2019-04-28T13:18:22.391Z,26.50
2019-04-28T13:20:52.229Z,26.40
2019-04-28T13:23:22.051Z,26.58
2019-04-28T13:25:52.056Z,26.57
2019-04-28T13:28:21.994Z,26.88
2019-04-28T13:30:51.881Z,27.05
2019-04-28T13:33:21.801Z,27.20
2019-04-28T13:35:51.663Z,27.21
2019-04-28T13:38:21.608Z,27.44
2019-04-28T13:40:51.363Z,27.32
2019-04-28T13:43:21.335Z,26.89
2019-04-28T13:45:51.223Z,26.45
2019-04-28T13:48:21.008Z,26.05
2019-04-28T13:50:50.935Z,25.79
2019-04-28T13:53:20.699Z,25.61
2019-04-28T13:55:52.275Z,25.42
2019-04-28T13:58:29.573Z,25.31
2019-04-28T14:01:06.753Z,25.30
2019-04-28T14:03:38.203Z,25.34
2019-04-28T14:06:28.658Z,25.29
2019-04-28T14:08:56.115Z,25.20
2019-04-28T14:11:26.107Z,25.01
2019-04-28T14:13:56.035Z,25.13
2019-04-28T14:16:26.034Z,25.06
2019-04-28T14:18:55.972Z,25.01
2019-04-28T14:21:25.774Z,25.10
2019-04-28T14:23:55.723Z,25.16
2019-04-28T14:26:25.554Z,24.97
2019-04-28T14:28:55.389Z,24.74
2019-04-28T14:31:25.234Z,24.57
2019-04-28T14:33:55.177Z,24.41
2019-04-28T14:36:25.036Z,24.21
2019-04-28T14:38:55.656Z,24.17
2019-04-28T14:41:25.453Z,24.08
2019-04-28T14:43:55.404Z,23.99
2019-04-28T14:46:25.401Z,24.00
2019-04-28T14:48:56.560Z,24.08
2019-04-28T14:51:26.477Z,24.20
2019-04-28T14:53:56.461Z,24.17
2019-04-28T14:56:26.355Z,23.99
2019-04-28T14:58:56.382Z,23.89
2019-04-28T15:01:42.739Z,23.83
2019-04-28T15:04:20.645Z,23.81
2019-04-28T15:06:55.799Z,23.90
2019-04-28T15:09:26.594Z,24.00
2019-04-28T15:11:58.134Z,23.96
2019-04-28T15:14:28.203Z,23.93
2019-04-28T15:16:58.113Z,23.88
2019-04-28T15:19:27.958Z,23.83
2019-04-28T15:21:57.845Z,23.72
2019-04-28T15:24:27.754Z,23.93
2019-04-28T15:26:57.725Z,24.40
2019-04-28T15:29:28.684Z,24.87
2019-04-28T15:31:59.180Z,25.35
2019-04-28T15:34:28.995Z,25.90
2019-04-28T15:37:09.169Z,26.04
2019-04-28T15:39:30.686Z,25.88
2019-04-28T15:42:00.701Z,25.59
2019-04-28T15:44:31.792Z,24.94
2019-04-28T15:47:01.683Z,24.17
2019-04-28T15:49:31.614Z,23.73
2019-04-28T15:52:03.377Z,23.29
2019-04-28T15:54:33.283Z,22.92
2019-04-28T15:57:03.351Z,22.60
2019-04-28T15:59:33.841Z,22.33
2019-04-28T16:02:02.932Z,22.13
2019-04-28T16:04:33.684Z,21.94
2019-04-28T16:07:03.600Z,21.77
2019-04-28T16:09:33.537Z,21.54
2019-04-28T16:12:03.331Z,21.38
2019-04-28T16:14:33.382Z,21.15
2019-04-28T16:17:03.206Z,20.86
2019-04-28T16:19:34.116Z,20.75
2019-04-28T16:22:04.033Z,20.50
2019-04-28T16:24:33.982Z,20.23
2019-04-28T16:27:04.540Z,20.02
2019-04-28T16:29:34.467Z,19.83
2019-04-28T16:32:04.412Z,19.63
2019-04-28T16:34:34.333Z,19.29
2019-04-28T16:37:04.165Z,19.08
2019-04-28T16:39:34.075Z,18.89
2019-04-28T16:42:04.716Z,18.76
2019-04-28T16:44:34.214Z,18.51
2019-04-28T16:47:13.674Z,18.37
2019-04-28T16:49:43.531Z,18.15
2019-04-28T16:52:13.453Z,17.90
2019-04-28T16:54:43.375Z,17.53
2019-04-28T16:57:23.911Z,17.26
2019-04-28T16:59:55.401Z,17.31
2019-04-28T17:02:26.823Z,17.15
2019-04-28T17:04:56.699Z,16.99
2019-04-28T17:07:26.809Z,16.82
2019-04-28T17:09:57.754Z,16.71
2019-04-28T17:12:27.748Z,16.69
2019-04-28T17:14:57.984Z,16.50
2019-04-28T17:17:29.157Z,16.29
2019-04-28T17:20:06.496Z,16.20
2019-04-28T17:22:36.947Z,16.37
2019-04-28T17:25:08.214Z,16.63
2019-04-28T17:27:38.065Z,16.78
2019-04-28T17:30:09.944Z,16.83
2019-04-28T17:32:39.900Z,16.70
2019-04-28T17:35:09.646Z,16.66
2019-04-28T17:37:39.949Z,16.72
2019-04-28T17:40:13.934Z,16.82
2019-04-28T17:42:43.936Z,16.80
2019-04-28T17:45:14.190Z,16.75
2019-04-28T17:47:44.329Z,16.92
2019-04-28T17:50:15.547Z,16.92
2019-04-28T17:52:45.676Z,16.92
2019-04-28T17:55:24.329Z,16.92
2019-04-28T17:57:57.863Z,16.96
2019-04-28T18:00:33.548Z,16.71
2019-04-28T18:03:17.056Z,16.52
2019-04-28T18:05:51.280Z,16.51
2019-04-28T18:08:21.588Z,16.59
2019-04-28T18:10:51.388Z,16.41
2019-04-28T18:13:21.388Z,16.26
2019-04-28T18:16:04.877Z,16.21
2019-04-28T18:18:37.707Z,16.20
2019-04-28T18:21:07.647Z,16.49
2019-04-28T18:23:37.592Z,16.55
2019-04-28T18:26:07.480Z,16.65
2019-04-28T18:28:37.329Z,16.76
2019-04-28T18:31:14.577Z,16.72
2019-04-28T18:34:01.995Z,16.65
2019-04-28T18:36:45.386Z,16.56
2019-04-28T18:39:26.088Z,16.50
2019-04-28T18:42:00.044Z,16.48
2019-04-28T18:44:29.837Z,16.39
2019-04-28T18:46:59.786Z,16.24
2019-04-28T18:49:29.797Z,16.06
2019-04-28T18:51:59.714Z,15.95
2019-04-28T18:54:29.452Z,16.01
2019-04-28T18:56:59.334Z,16.24
2019-04-28T18:59:29.074Z,16.34
2019-04-28T19:02:06.955Z,16.77
2019-04-28T19:04:36.778Z,16.97
2019-04-28T19:07:08.294Z,17.20
2019-04-28T19:09:39.733Z,17.30
2019-04-28T19:12:14.222Z,17.36
2019-04-28T19:15:05.042Z,17.24
2019-04-28T19:17:49.856Z,17.33
2019-04-28T19:20:19.922Z,17.31
2019-04-28T19:22:49.995Z,17.44
2019-04-28T19:25:19.929Z,17.53
2019-04-28T19:27:49.846Z,17.65
2019-04-28T19:30:19.878Z,17.81
2019-04-28T19:32:49.816Z,17.86
2019-04-28T19:35:19.644Z,18.27
2019-04-28T19:37:49.461Z,18.42
2019-04-28T19:40:19.356Z,18.49
2019-04-28T19:42:49.254Z,18.47
2019-04-28T19:45:20.992Z,18.60
2019-04-28T19:47:50.110Z,18.66
2019-04-28T19:50:19.882Z,18.57
2019-04-28T19:52:50.825Z,18.51
2019-04-28T19:55:22.314Z,18.46
2019-04-28T19:57:56.676Z,18.40
2019-04-28T20:00:28.160Z,18.47
2019-04-28T20:02:58.057Z,18.53
2019-04-28T20:05:29.446Z,18.51
2019-04-28T20:07:59.517Z,18.48
2019-04-28T20:10:29.434Z,18.43
2019-04-28T20:12:59.489Z,18.40
2019-04-28T20:15:29.415Z,18.43
2019-04-28T20:18:00.340Z,18.32
2019-04-28T20:20:31.420Z,18.27
2019-04-28T20:23:01.358Z,18.14
2019-04-28T20:25:32.762Z,18.18
2019-04-28T20:28:02.681Z,18.17
2019-04-28T20:30:32.506Z,18.22
2019-04-28T20:33:07.315Z,18.10
2019-04-28T20:35:35.703Z,18.06
2019-04-28T20:38:07.179Z,18.01
2019-04-28T20:40:44.480Z,17.99
2019-04-28T20:43:15.902Z,18.01
2019-04-28T20:45:45.792Z,17.89
2019-04-28T20:48:15.615Z,17.77
2019-04-28T20:50:45.432Z,17.82
2019-04-28T20:53:15.282Z,17.80
2019-04-28T20:55:45.164Z,17.78
2019-04-28T20:58:15.047Z,17.69
2019-04-28T21:00:44.840Z,17.83
2019-04-28T21:03:14.708Z,17.65
2019-04-28T21:05:44.596Z,17.60
2019-04-28T21:08:14.358Z,17.54
2019-04-28T21:10:44.281Z,17.60
2019-04-28T21:13:14.183Z,17.52
2019-04-28T21:15:44.015Z,17.47
2019-04-28T21:18:14.618Z,17.48
2019-04-28T21:20:43.651Z,17.46
2019-04-28T21:23:13.379Z,17.38
2019-04-28T21:25:43.267Z,17.36
2019-04-28T21:28:12.951Z,17.35
2019-04-28T21:30:42.829Z,17.26
2019-04-28T21:33:12.691Z,17.18
2019-04-28T21:35:42.440Z,17.17
2019-04-28T21:38:12.343Z,17.21
2019-04-28T21:40:43.300Z,17.19
2019-04-28T21:43:17.487Z,17.24
2019-04-28T21:45:50.452Z,17.07
2019-04-28T21:48:40.176Z,17.02
2019-04-28T21:51:11.921Z,17.04
2019-04-28T21:53:41.549Z,16.97
2019-04-28T21:56:11.346Z,16.85
2019-04-28T21:58:41.161Z,16.93
2019-04-28T22:01:14.015Z,16.91
2019-04-28T22:03:44.037Z,16.94
2019-04-28T22:06:13.947Z,16.88
2019-04-28T22:08:43.752Z,16.86
2019-04-28T22:11:13.490Z,16.93
2019-04-28T22:13:43.240Z,17.19
2019-04-28T22:16:13.095Z,17.10
2019-04-28T22:18:42.834Z,17.22
2019-04-28T22:21:12.612Z,17.12
2019-04-28T22:23:56.186Z,17.21
2019-04-28T22:26:43.566Z,17.19
2019-04-28T22:29:14.099Z,17.08
2019-04-28T22:31:45.397Z,16.93
2019-04-28T22:34:15.385Z,16.89
2019-04-28T22:36:46.535Z,16.79
2019-04-28T22:39:17.181Z,16.93
2019-04-28T22:41:46.141Z,16.76
2019-04-28T22:44:16.001Z,16.73
2019-04-28T22:46:45.768Z,16.66
2019-04-28T22:49:15.586Z,16.56
2019-04-28T22:51:45.522Z,16.57
2019-04-28T22:54:25.615Z,16.58
2019-04-28T22:56:57.069Z,16.56
2019-04-28T22:59:28.379Z,16.51
2019-04-28T23:02:05.770Z,16.49
2019-04-28T23:04:43.178Z,16.60
2019-04-28T23:07:13.550Z,16.49
2019-04-28T23:09:43.419Z,16.31
2019-04-28T23:12:13.509Z,16.06
2019-04-28T23:14:43.278Z,15.80
2019-04-28T23:17:14.724Z,15.55
2019-04-28T23:19:44.614Z,15.38
2019-04-28T23:22:19.385Z,15.18
2019-04-28T23:24:49.323Z,14.96
2019-04-28T23:27:19.150Z,14.93
2019-04-28T23:29:48.898Z,14.88
2019-04-28T23:32:18.788Z,14.73
2019-04-28T23:34:48.687Z,14.75
2019-04-28T23:37:18.586Z,14.75
2019-04-28T23:39:48.435Z,14.67
2019-04-28T23:42:19.806Z,14.61
2019-04-28T23:44:49.704Z,14.52
2019-04-28T23:47:19.573Z,14.50
2019-04-28T23:49:49.332Z,14.33
2019-04-28T23:52:20.710Z,14.14
2019-04-28T23:54:55.055Z,14.01
2019-04-28T23:57:24.937Z,13.87
2019-04-28T23:59:54.696Z,13.63
